Time;durP1;ratioP1;P1;durP2;ratioP2;P2;SDS_P1;SDS_P2;PMS_P1;PMS_P2;Temp;Humidity;BMP_temperature;BMP_pressure;BME280_temperature;BME280_humidity;BME280_pressure;Samples;Min_cycle;Max_cycle;Signal;HPM_P1;HPM_P2
2020/12/14 06:01:47;;;;;;;10.90;6.97;;;4.00;97.30;;;;;;5403319;23;20488;-72
2020/12/14 06:04:15;;;;;;;10.43;6.60;;;4.00;97.30;;;;;;4916929;29;20417;-72
2020/12/14 06:06:47;;;;;;;9.47;6.07;;;4.00;97.30;;;;;;4926559;29;20507;-71
2020/12/14 06:09:21;;;;;;;11.20;6.63;;;4.00;97.30;;;;;;4936992;29;20454;-71
2020/12/14 06:11:52;;;;;;;10.40;6.13;;;4.00;97.30;;;;;;4922142;29;20827;-71
2020/12/14 06:14:20;;;;;;;11.87;6.40;;;3.90;97.30;;;;;;4917666;29;20405;-71
2020/12/14 06:16:47;;;;;;;10.77;7.03;;;3.90;97.30;;;;;;4917816;29;20429;-71
2020/12/14 06:19:15;;;;;;;10.40;6.30;;;3.90;97.30;;;;;;4916700;29;20428;-72
2020/12/14 06:21:58;;;;;;;8.90;5.73;;;3.90;97.30;;;;;;4916542;29;20516;-72
2020/12/14 06:24:25;;;;;;;11.13;7.60;;;3.80;97.30;;;;;;4916342;29;20981;-72
2020/12/14 06:26:51;;;;;;;11.20;6.97;;;3.80;97.30;;;;;;4916064;29;20435;-72
2020/12/14 06:29:38;;;;;;;10.00;6.93;;;3.80;97.30;;;;;;4917627;29;20440;-72
2020/12/14 06:32:33;;;;;;;10.70;7.40;;;3.70;97.30;;;;;;4916371;29;20803;-71
2020/12/14 06:34:59;;;;;;;11.10;6.63;;;3.70;97.30;;;;;;4916068;29;20417;-71
2020/12/14 06:37:46;;;;;;;9.10;6.03;;;3.70;97.30;;;;;;4917172;29;21057;-72
2020/12/14 06:40:11;;;;;;;12.77;6.90;;;3.60;97.30;;;;;;4917522;29;20173;-72
2020/12/14 06:42:37;;;;;;;10.33;6.80;;;3.70;97.30;;;;;;4916020;29;20961;-72
2020/12/14 06:45:07;;;;;;;9.77;6.40;;;3.70;97.30;;;;;;4917107;29;20191;-72
2020/12/14 06:47:40;;;;;;;10.67;6.17;;;3.70;97.30;;;;;;4897868;29;20531;-72
2020/12/14 06:50:31;;;;;;;9.67;6.47;;;3.70;97.30;;;;;;4898301;29;20453;-72
2020/12/14 06:53:00;;;;;;;11.17;6.83;;;3.60;97.30;;;;;;4898323;29;20406;-72
2020/12/14 06:55:46;;;;;;;12.53;7.00;;;3.60;97.30;;;;;;4914378;29;20443;-72
2020/12/14 06:58:41;;;;;;;10.00;6.30;;;3.60;97.30;;;;;;4917120;29;20415;-72
2020/12/14 07:01:35;;;;;;;12.10;6.80;;;3.60;97.30;;;;;;4916693;29;20447;-72
2020/12/14 07:04:21;;;;;;;11.03;7.20;;;3.70;97.30;;;;;;4917044;29;20508;-72
2020/12/14 07:06:46;;;;;;;11.03;6.40;;;3.70;97.30;;;;;;4914747;29;20852;-72
2020/12/14 07:09:26;;;;;;;12.90;7.20;;;3.70;97.30;;;;;;4915779;29;20456;-72
2020/12/14 07:11:52;;;;;;;8.93;6.10;;;3.70;97.30;;;;;;4916963;29;20271;-72
2020/12/14 07:14:30;;;;;;;10.77;6.37;;;3.70;97.30;;;;;;4915658;29;20990;-72
2020/12/14 07:16:57;;;;;;;10.83;6.40;;;3.70;97.30;;;;;;4916930;29;20183;-71
2020/12/14 07:19:34;;;;;;;7.00;5.27;;;3.80;97.30;;;;;;4915730;29;20431;-72
2020/12/14 07:22:00;;;;;;;11.20;6.50;;;3.80;97.30;;;;;;4915693;29;20451;-71
2020/12/14 07:24:35;;;;;;;9.13;5.67;;;3.80;97.30;;;;;;4916775;29;20492;-72
2020/12/14 07:27:01;;;;;;;9.23;5.73;;;3.90;97.30;;;;;;4915718;29;20417;-72
2020/12/14 07:29:27;;;;;;;10.13;5.40;;;3.90;97.30;;;;;;4914996;29;20504;-72
2020/12/14 07:31:53;;;;;;;12.20;6.60;;;4.00;97.30;;;;;;4915356;29;20473;-72
2020/12/14 07:34:19;;;;;;;11.03;6.53;;;4.00;97.30;;;;;;4916769;29;20421;-72
2020/12/14 07:36:44;;;;;;;10.80;6.60;;;4.10;97.30;;;;;;4915631;29;20918;-72
2020/12/14 07:39:10;;;;;;;12.30;6.50;;;4.10;97.30;;;;;;4916290;29;20547;-72
2020/12/14 07:41:36;;;;;;;9.30;6.20;;;4.10;97.30;;;;;;4915006;29;20219;-72
2020/12/14 07:44:04;;;;;;;11.93;6.30;;;4.10;97.30;;;;;;4914881;29;20216;-71
2020/12/14 07:46:33;;;;;;;11.93;6.40;;;4.10;97.30;;;;;;4916551;29;20184;-72
2020/12/14 07:49:05;;;;;;;12.20;7.20;;;4.10;97.30;;;;;;4916141;29;20460;-72
2020/12/14 07:51:32;;;;;;;12.10;6.80;;;4.10;97.30;;;;;;4914582;29;20861;-72
2020/12/14 07:54:24;;;;;;;10.60;5.70;;;4.10;97.30;;;;;;4915296;29;20417;-72
2020/12/14 07:57:06;;;;;;;10.50;6.67;;;4.20;97.30;;;;;;4912792;29;20424;-73
2020/12/14 07:59:31;;;;;;;7.53;5.70;;;4.20;97.30;;;;;;4915597;29;20478;-72
2020/12/14 08:01:57;;;;;;;9.03;5.53;;;4.20;97.30;;;;;;4918725;29;20550;-72
2020/12/14 08:04:24;;;;;;;10.93;6.10;;;4.30;97.30;;;;;;4920060;29;20183;-72
2020/12/14 08:06:51;;;;;;;9.10;5.53;;;4.30;97.30;;;;;;4918954;29;20431;-72
2020/12/14 08:09:22;;;;;;;9.10;5.70;;;4.30;97.30;;;;;;4918741;29;20460;-71
2020/12/14 08:11:49;;;;;;;10.20;6.27;;;4.30;97.30;;;;;;4918789;29;20511;-72
2020/12/14 08:14:17;;;;;;;8.10;5.47;;;4.30;97.30;;;;;;4918052;29;20824;-72
2020/12/14 08:16:44;;;;;;;7.90;5.30;;;4.40;97.30;;;;;;4919986;29;20448;-72
2020/12/14 08:19:23;;;;;;;10.50;7.30;;;4.40;97.30;;;;;;4919584;29;20863;-72
2020/12/14 08:22:20;;;;;;;9.90;5.57;;;4.40;97.30;;;;;;4919907;29;20946;-72
2020/12/14 08:24:55;;;;;;;10.10;6.20;;;4.40;97.30;;;;;;4906894;29;20428;-72
2020/12/14 08:27:33;;;;;;;8.70;5.63;;;4.40;97.30;;;;;;4919773;29;20405;-72
2020/12/14 08:30:08;;;;;;;11.30;6.63;;;4.40;97.30;;;;;;4919823;29;20448;-72
2020/12/14 08:32:34;;;;;;;9.43;5.63;;;4.50;97.30;;;;;;4918357;29;20470;-71
2020/12/14 08:34:59;;;;;;;10.67;6.57;;;4.50;97.30;;;;;;4918255;29;20441;-71
2020/12/14 08:37:25;;;;;;;11.00;5.80;;;4.50;97.30;;;;;;4918230;29;20215;-71
2020/12/14 08:40:02;;;;;;;11.17;6.40;;;4.50;97.30;;;;;;4918444;29;20216;-71
2020/12/14 08:42:32;;;;;;;11.27;6.37;;;4.60;97.30;;;;;;4919496;29;20476;-71
2020/12/14 08:45:14;;;;;;;10.87;6.40;;;4.60;97.30;;;;;;4918070;29;20428;-71
2020/12/14 08:47:43;;;;;;;13.87;6.70;;;4.70;97.30;;;;;;4918074;29;20452;-71
2020/12/14 08:50:12;;;;;;;10.83;6.53;;;4.70;97.30;;;;;;4918082;29;20460;-71
2020/12/14 08:52:39;;;;;;;9.63;6.10;;;4.70;97.30;;;;;;4919224;29;20452;-71
2020/12/14 08:55:05;;;;;;;8.80;6.60;;;4.80;97.30;;;;;;4918182;29;20460;-71
2020/12/14 08:57:32;;;;;;;13.20;6.90;;;4.80;97.30;;;;;;4918098;29;20420;-71
2020/12/14 09:00:07;;;;;;;8.37;5.80;;;4.80;97.30;;;;;;4919250;29;20405;-71
2020/12/14 09:02:33;;;;;;;9.50;6.50;;;4.90;97.30;;;;;;4919489;29;20976;-71
2020/12/14 09:04:59;;;;;;;9.50;5.93;;;4.90;97.30;;;;;;4919110;29;20507;-72
2020/12/14 09:07:27;;;;;;;12.73;7.00;;;4.90;97.30;;;;;;4919250;29;20507;-71
2020/12/14 09:09:53;;;;;;;9.97;5.90;;;5.00;97.30;;;;;;4917645;29;20204;-72
2020/12/14 09:12:19;;;;;;;10.80;6.63;;;5.00;97.30;;;;;;4918460;29;20520;-70
2020/12/14 09:14:46;;;;;;;9.80;5.70;;;5.10;97.30;;;;;;4917504;29;20504;-70
2020/12/14 09:17:21;;;;;;;10.43;5.53;;;5.20;97.30;;;;;;4917997;29;20452;-70
2020/12/14 09:19:51;;;;;;;10.17;6.73;;;5.20;97.30;;;;;;4917254;29;20448;-70
2020/12/14 09:22:27;;;;;;;10.80;6.47;;;5.30;97.30;;;;;;4917305;29;20456;-70
2020/12/14 09:24:53;;;;;;;9.80;6.30;;;5.40;97.30;;;;;;4918360;29;20416;-69
2020/12/14 09:27:20;;;;;;;10.40;6.00;;;5.40;97.30;;;;;;4917256;29;20435;-68
2020/12/14 09:29:46;;;;;;;9.80;5.70;;;5.50;97.30;;;;;;4917067;29;20530;-68
2020/12/14 09:32:12;;;;;;;11.17;5.63;;;5.60;97.30;;;;;;4916976;29;21006;-69
2020/12/14 09:34:41;;;;;;;9.50;6.63;;;5.70;97.30;;;;;;4916821;29;20467;-69
2020/12/14 09:37:07;;;;;;;10.83;6.13;;;5.80;97.30;;;;;;4918205;29;20413;-69
2020/12/14 09:39:33;;;;;;;12.03;6.73;;;5.90;97.30;;;;;;4918417;29;20417;-69
2020/12/14 09:42:00;;;;;;;16.10;6.10;;;6.10;97.30;;;;;;4918181;29;20451;-69
2020/12/14 09:44:31;;;;;;;10.23;5.70;;;6.20;97.30;;;;;;4913926;29;20515;-69
2020/12/14 09:47:00;;;;;;;8.27;5.77;;;6.30;97.30;;;;;;4917717;29;20576;-69
2020/12/14 09:49:25;;;;;;;11.10;5.67;;;6.40;97.30;;;;;;4916713;29;20487;-69
2020/12/14 09:51:51;;;;;;;9.90;6.60;;;6.50;97.30;;;;;;4916572;29;20982;-69
2020/12/14 09:54:17;;;;;;;9.73;5.63;;;6.70;97.30;;;;;;4917444;29;20185;-70
2020/12/14 09:56:43;;;;;;;9.60;5.53;;;6.70;97.30;;;;;;4916692;29;20710;-70
2020/12/14 09:59:09;;;;;;;10.23;5.30;;;6.80;97.30;;;;;;4916947;29;20484;-70
2020/12/14 10:01:35;;;;;;;9.50;5.00;;;6.80;97.30;;;;;;4917462;29;20444;-71
2020/12/14 10:04:01;;;;;;;10.10;6.03;;;6.80;97.30;;;;;;4916074;29;20646;-69
2020/12/14 10:06:27;;;;;;;7.87;5.07;;;6.90;97.30;;;;;;4916047;29;20447;-68
2020/12/14 10:08:53;;;;;;;9.53;5.20;;;6.90;97.30;;;;;;4916298;29;20539;-68
2020/12/14 10:11:24;;;;;;;13.63;5.67;;;6.90;97.30;;;;;;4916346;29;20468;-68
2020/12/14 10:13:52;;;;;;;10.07;5.47;;;7.00;97.30;;;;;;4916713;29;20990;-69
2020/12/14 10:16:19;;;;;;;8.77;5.40;;;7.00;97.30;;;;;;4915763;29;20883;-69
2020/12/14 10:18:45;;;;;;;8.37;5.30;;;7.10;97.30;;;;;;4917472;29;20431;-69
2020/12/14 10:21:11;;;;;;;8.87;5.80;;;7.10;97.30;;;;;;4911698;29;20552;-69
2020/12/14 10:23:37;;;;;;;12.70;5.80;;;7.20;97.30;;;;;;4915037;29;20428;-71
2020/12/14 10:26:04;;;;;;;8.80;5.50;;;7.20;97.30;;;;;;4917446;29;20431;-72
2020/12/14 10:28:30;;;;;;;10.63;6.07;;;7.30;97.30;;;;;;4915644;29;20818;-70
2020/12/14 10:30:56;;;;;;;10.17;6.07;;;7.30;97.30;;;;;;4915723;29;20453;-69
2020/12/14 10:33:22;;;;;;;11.27;6.47;;;7.40;97.30;;;;;;4916805;29;20424;-69
2020/12/14 10:35:48;;;;;;;9.00;4.67;;;7.60;97.30;;;;;;4916735;29;20440;-71
2020/12/14 10:38:15;;;;;;;9.60;5.53;;;7.70;97.30;;;;;;4915929;29;20433;-71
2020/12/14 10:40:41;;;;;;;12.13;6.00;;;8.00;97.30;;;;;;4913906;29;20460;-70
2020/12/14 10:43:07;;;;;;;8.50;5.00;;;8.10;97.30;;;;;;4897496;29;20426;-69
2020/12/14 10:45:32;;;;;;;9.87;5.50;;;8.30;97.30;;;;;;4915236;29;20440;-70
2020/12/14 10:47:58;;;;;;;6.60;4.60;;;8.40;97.30;;;;;;4917049;29;20263;-70
2020/12/14 10:50:25;;;;;;;9.63;5.20;;;8.50;97.30;;;;;;4916606;29;20215;-70
2020/12/14 10:52:51;;;;;;;13.00;5.57;;;8.50;97.30;;;;;;4915352;29;20212;-70
2020/12/14 10:55:20;;;;;;;8.90;5.10;;;8.50;97.30;;;;;;4916487;29;20425;-70
2020/12/14 10:57:46;;;;;;;7.30;4.23;;;8.60;97.30;;;;;;4915473;29;20425;-70
2020/12/14 11:00:12;;;;;;;8.70;4.87;;;8.60;97.30;;;;;;4915352;29;20429;-71
2020/12/14 11:02:39;;;;;;;9.60;5.30;;;8.60;97.30;;;;;;4915542;29;20606;-70
2020/12/14 11:05:09;;;;;;;11.20;5.50;;;8.60;97.30;;;;;;4915930;29;20519;-70
2020/12/14 11:07:36;;;;;;;9.67;5.50;;;8.70;97.30;;;;;;4916613;29;20413;-71
2020/12/14 11:10:04;;;;;;;10.13;5.40;;;8.80;97.30;;;;;;4915311;29;20987;-72
2020/12/14 11:12:30;;;;;;;8.60;4.67;;;8.70;97.30;;;;;;4915550;29;20452;-72
2020/12/14 11:14:56;;;;;;;7.83;5.00;;;8.70;97.30;;;;;;4914706;29;20802;-71
2020/12/14 11:17:22;;;;;;;8.40;4.90;;;8.60;97.30;;;;;;4915563;29;20460;-71
2020/12/14 11:19:48;;;;;;;8.57;5.07;;;8.70;97.30;;;;;;4915465;29;20184;-71
2020/12/14 11:22:14;;;;;;;10.30;6.23;;;8.70;97.30;;;;;;4915087;29;20657;-71
2020/12/14 11:24:43;;;;;;;9.63;5.27;;;8.80;97.30;;;;;;4914915;29;20519;-71
2020/12/14 11:27:09;;;;;;;7.63;4.83;;;8.90;97.30;;;;;;4915586;29;20488;-71
2020/12/14 11:29:35;;;;;;;8.07;5.10;;;8.90;97.30;;;;;;4915123;29;20464;-71
2020/12/14 11:32:00;;;;;;;9.60;5.00;;;9.00;97.30;;;;;;4915358;29;20211;-71
2020/12/14 11:34:26;;;;;;;7.73;5.13;;;9.00;97.30;;;;;;4915654;29;20451;-72
2020/12/14 11:36:52;;;;;;;9.13;5.47;;;9.00;97.30;;;;;;4919194;29;20188;-71
2020/12/14 11:39:18;;;;;;;8.30;5.10;;;8.90;97.30;;;;;;4919199;29;20421;-72
2020/12/14 11:41:48;;;;;;;9.80;4.97;;;8.90;97.30;;;;;;4919314;29;20211;-71
2020/12/14 11:44:15;;;;;;;8.10;4.77;;;8.90;97.30;;;;;;4908456;29;20185;-71
2020/12/14 11:46:42;;;;;;;8.70;4.97;;;9.00;97.30;;;;;;4920525;29;20421;-70
2020/12/14 11:49:08;;;;;;;7.77;5.07;;;9.00;97.30;;;;;;4919320;29;20488;-71
2020/12/14 11:51:36;;;;;;;9.33;5.17;;;9.00;97.30;;;;;;4918840;29;20540;-71
2020/12/14 11:54:02;;;;;;;8.73;4.73;;;9.00;97.30;;;;;;4918773;29;20240;-71
2020/12/14 11:56:28;;;;;;;9.40;4.70;;;9.00;97.30;;;;;;4919117;29;20416;-70
2020/12/14 11:58:54;;;;;;;7.10;4.67;;;9.10;97.30;;;;;;4918754;29;20437;-70
2020/12/14 12:01:23;;;;;;;8.00;5.00;;;9.10;97.30;;;;;;4918696;29;20219;-70
2020/12/14 12:03:50;;;;;;;7.63;4.87;;;9.20;97.30;;;;;;4919845;29;20549;-70
2020/12/14 12:06:16;;;;;;;8.57;4.97;;;9.50;97.30;;;;;;4918795;29;20508;-71
2020/12/14 12:08:42;;;;;;;8.40;5.13;;;9.80;97.30;;;;;;4920279;29;20818;-71
2020/12/14 12:11:11;;;;;;;6.20;4.30;;;9.80;97.30;;;;;;4920042;29;20962;-71
2020/12/14 12:13:37;;;;;;;7.90;4.40;;;9.90;97.30;;;;;;4918195;29;20421;-71
2020/12/14 12:16:05;;;;;;;7.00;4.40;;;10.00;97.30;;;;;;4919725;29;20521;-71
2020/12/14 12:18:31;;;;;;;7.53;5.13;;;10.00;97.00;;;;;;4916636;29;20192;-71
2020/12/14 12:20:57;;;;;;;7.60;4.60;;;9.90;97.30;;;;;;4897485;29;20791;-73
2020/12/14 12:23:22;;;;;;;11.93;5.70;;;9.90;97.30;;;;;;4900441;29;20264;-72
2020/12/14 12:25:48;;;;;;;6.97;4.40;;;10.00;97.30;;;;;;4915806;29;20260;-72
2020/12/14 12:28:14;;;;;;;8.00;5.00;;;10.10;97.00;;;;;;4919151;29;20196;-72
2020/12/14 12:30:40;;;;;;;7.53;5.37;;;10.10;96.90;;;;;;4918220;29;20235;-70
2020/12/14 12:33:06;;;;;;;8.53;5.30;;;10.10;96.70;;;;;;4919630;29;20887;-70
2020/12/14 12:35:31;;;;;;;6.67;4.77;;;10.10;96.90;;;;;;4918642;29;20631;-71
2020/12/14 12:37:57;;;;;;;7.03;4.10;;;10.30;96.80;;;;;;4918129;29;20259;-70
2020/12/14 12:40:23;;;;;;;5.97;4.53;;;10.70;96.70;;;;;;4918074;29;20625;-70
2020/12/14 12:42:48;;;;;;;8.07;4.90;;;11.00;95.30;;;;;;4917508;29;20188;-70
2020/12/14 12:45:14;;;;;;;9.40;4.80;;;11.10;94.70;;;;;;4917096;29;20731;-69
2020/12/14 12:47:40;;;;;;;8.70;5.07;;;11.00;94.40;;;;;;4918726;29;20208;-71
2020/12/14 12:50:05;;;;;;;6.00;4.00;;;11.20;94.10;;;;;;4917316;29;20239;-71
2020/12/14 12:52:31;;;;;;;5.90;4.23;;;11.50;94.40;;;;;;4917587;29;20279;-71
2020/12/14 12:54:57;;;;;;;7.63;3.90;;;11.50;93.40;;;;;;4917334;29;20185;-71
2020/12/14 12:57:22;;;;;;;8.03;4.57;;;11.60;93.10;;;;;;4918511;29;20260;-71
2020/12/14 12:59:48;;;;;;;6.23;3.87;;;11.80;92.80;;;;;;4917350;29;20219;-71
2020/12/14 13:02:14;;;;;;;6.70;4.80;;;11.80;91.80;;;;;;4917018;29;20223;-71
2020/12/14 13:04:39;;;;;;;8.30;4.70;;;11.90;92.70;;;;;;4917168;29;20184;-76
2020/12/14 13:07:06;;;;;;;6.10;3.90;;;12.20;92.10;;;;;;4917504;29;20240;-76
2020/12/14 13:09:32;;;;;;;8.47;4.40;;;12.40;91.50;;;;;;4920598;29;20263;-78
2020/12/14 13:11:58;;;;;;;7.30;4.60;;;12.40;91.50;;;;;;4922025;29;20452;-79
2020/12/14 13:14:23;;;;;;;8.83;4.80;;;12.40;91.20;;;;;;4923749;29;20449;-77
2020/12/14 13:16:49;;;;;;;6.00;4.30;;;12.30;91.10;;;;;;4921382;29;20449;-75
2020/12/14 13:19:15;;;;;;;6.20;4.20;;;12.30;91.60;;;;;;4918397;29;20579;-70
2020/12/14 13:21:41;;;;;;;6.93;4.50;;;12.10;91.30;;;;;;4918518;29;20205;-70
2020/12/14 13:24:07;;;;;;;6.10;4.43;;;12.00;91.70;;;;;;4918421;29;20184;-71
2020/12/14 13:26:32;;;;;;;7.03;4.17;;;12.10;91.70;;;;;;4918477;29;20541;-70
2020/12/14 13:29:00;;;;;;;8.77;4.40;;;12.00;91.50;;;;;;4917326;29;20460;-70
2020/12/14 13:31:27;;;;;;;5.17;3.87;;;12.10;91.70;;;;;;4918512;29;20328;-72
2020/12/14 13:33:53;;;;;;;5.37;3.53;;;11.90;91.70;;;;;;4916982;29;20464;-72
2020/12/14 13:36:20;;;;;;;9.90;4.10;;;11.80;91.80;;;;;;4917086;29;20516;-70
2020/12/14 13:38:46;;;;;;;5.37;4.13;;;11.70;92.30;;;;;;4918143;29;20421;-71
2020/12/14 13:41:12;;;;;;;5.77;3.47;;;11.60;92.40;;;;;;4916633;29;20440;-71
2020/12/14 13:43:38;;;;;;;5.50;4.20;;;11.60;92.40;;;;;;4916455;29;20185;-70
2020/12/14 13:46:06;;;;;;;6.80;4.27;;;11.60;92.30;;;;;;4916949;29;20212;-71
2020/12/14 13:48:32;;;;;;;6.07;4.07;;;11.60;92.30;;;;;;4916245;29;20505;-71
2020/12/14 13:50:58;;;;;;;4.57;3.80;;;11.60;92.30;;;;;;4916548;29;20453;-72
2020/12/14 13:53:26;;;;;;;4.20;3.33;;;11.70;92.50;;;;;;4917499;29;20462;-71
2020/12/14 13:55:52;;;;;;;4.83;3.00;;;11.80;92.10;;;;;;4916544;29;20614;-71
2020/12/14 13:58:17;;;;;;;10.00;4.17;;;12.00;91.60;;;;;;4917793;29;20428;-71
2020/12/14 14:00:43;;;;;;;6.00;4.20;;;12.20;91.50;;;;;;4916346;29;20548;-72
2020/12/14 14:03:08;;;;;;;4.70;3.70;;;12.20;90.80;;;;;;4916864;29;20211;-70
2020/12/14 14:05:34;;;;;;;5.90;3.20;;;11.90;91.10;;;;;;4916641;29;20192;-72
2020/12/14 14:08:00;;;;;;;5.50;3.33;;;11.60;91.20;;;;;;4916101;29;20662;-72
2020/12/14 14:10:25;;;;;;;5.33;3.70;;;11.50;91.80;;;;;;4917405;29;20663;-71
2020/12/14 14:12:51;;;;;;;6.50;3.90;;;11.50;91.70;;;;;;4915921;29;20601;-71
2020/12/14 14:15:17;;;;;;;10.43;5.07;;;11.50;91.90;;;;;;4916095;29;20180;-71
2020/12/14 14:17:43;;;;;;;4.87;4.00;;;11.40;92.00;;;;;;4917426;29;20576;-71
2020/12/14 14:20:09;;;;;;;7.23;4.67;;;11.10;92.50;;;;;;4917519;29;20662;-71
2020/12/14 14:22:35;;;;;;;6.20;4.60;;;11.10;92.80;;;;;;4917419;29;20476;-71
2020/12/14 14:25:03;;;;;;;8.60;4.57;;;11.00;92.90;;;;;;4917340;29;20476;-70
2020/12/14 14:27:29;;;;;;;9.00;5.00;;;10.50;93.50;;;;;;4914254;29;20838;-70
2020/12/14 14:29:55;;;;;;;5.63;3.80;;;10.20;94.50;;;;;;4917358;29;20448;-70
2020/12/14 14:32:20;;;;;;;7.23;4.60;;;9.90;95.40;;;;;;4917015;29;20203;-71
2020/12/14 14:34:50;;;;;;;8.17;4.97;;;9.60;96.30;;;;;;4917299;29;20176;-72
2020/12/14 14:37:16;;;;;;;8.93;5.67;;;9.30;97.00;;;;;;4900308;29;20678;-77
2020/12/14 14:39:42;;;;;;;7.63;4.93;;;9.10;97.30;;;;;;4916477;29;20511;-70
2020/12/14 14:42:08;;;;;;;7.23;4.90;;;8.90;97.30;;;;;;4915680;29;20444;-75
2020/12/14 14:44:34;;;;;;;8.97;4.73;;;8.80;97.30;;;;;;4915799;29;20188;-74
2020/12/14 14:47:00;;;;;;;7.63;4.30;;;8.70;97.30;;;;;;4915726;29;20425;-78
2020/12/14 14:49:26;;;;;;;8.13;4.40;;;8.50;97.30;;;;;;4915535;29;20222;-76
2020/12/14 14:51:54;;;;;;;8.60;4.30;;;8.50;97.30;;;;;;4915872;29;20540;-77
2020/12/14 14:54:22;;;;;;;7.07;3.90;;;8.40;97.30;;;;;;4915378;29;20427;-71
2020/12/14 14:56:48;;;;;;;7.83;3.93;;;8.30;97.30;;;;;;4914882;29;20417;-71
2020/12/14 14:59:14;;;;;;;6.70;3.90;;;8.30;97.30;;;;;;4919869;29;20452;-71
2020/12/14 15:01:41;;;;;;;8.53;4.73;;;8.20;97.30;;;;;;4924018;29;20550;-71
2020/12/14 15:04:07;;;;;;;8.40;4.40;;;8.20;97.30;;;;;;4926009;29;20423;-70
2020/12/14 15:06:37;;;;;;;6.03;4.27;;;8.10;97.30;;;;;;4925525;29;20445;-70
2020/12/14 15:09:09;;;;;;;5.60;4.30;;;8.00;97.30;;;;;;4919074;29;21054;-70
2020/12/14 15:11:37;;;;;;;6.00;3.97;;;8.00;97.30;;;;;;4924888;29;20447;-70
2020/12/14 15:14:05;;;;;;;6.30;4.30;;;7.90;97.30;;;;;;4925087;29;20432;-72
2020/12/14 15:16:33;;;;;;;6.73;4.13;;;7.90;97.30;;;;;;4920733;29;20435;-70
2020/12/14 15:19:04;;;;;;;6.90;4.33;;;7.80;97.30;;;;;;4924687;29;20429;-72
2020/12/14 15:21:31;;;;;;;8.40;5.07;;;7.70;97.30;;;;;;4921562;29;20437;-71
2020/12/14 15:23:59;;;;;;;7.63;5.00;;;7.70;97.30;;;;;;4927308;29;20797;-72
2020/12/14 15:26:27;;;;;;;9.10;5.50;;;7.70;97.30;;;;;;4922047;29;20468;-70
2020/12/14 15:28:54;;;;;;;7.97;5.10;;;7.60;97.30;;;;;;4923787;29;20467;-72
2020/12/14 15:31:20;;;;;;;8.17;4.77;;;7.60;97.30;;;;;;4924794;29;20452;-71
2020/12/14 15:33:48;;;;;;;10.50;5.30;;;7.60;97.30;;;;;;4925610;29;20774;-79
2020/12/14 15:36:22;;;;;;;7.83;5.13;;;7.60;97.30;;;;;;4919405;29;20184;-80
2020/12/14 15:38:51;;;;;;;11.80;5.20;;;7.60;97.30;;;;;;4917477;29;20432;-73
2020/12/14 15:41:18;;;;;;;8.57;4.60;;;7.60;97.30;;;;;;4917517;29;21001;-70
2020/12/14 15:43:44;;;;;;;10.57;4.90;;;7.60;97.30;;;;;;4914937;29;20930;-73
2020/12/14 15:46:11;;;;;;;10.57;5.27;;;7.60;97.30;;;;;;4914684;29;20448;-71
2020/12/14 15:48:38;;;;;;;7.30;4.50;;;7.60;97.30;;;;;;4913866;29;20471;-78
2020/12/14 15:51:05;;;;;;;7.87;4.53;;;7.60;97.30;;;;;;4914290;29;20488;-72
2020/12/14 15:53:31;;;;;;;10.40;4.70;;;7.60;97.30;;;;;;4914113;29;20460;-71
2020/12/14 15:55:57;;;;;;;7.80;4.60;;;7.50;97.30;;;;;;4914011;29;20463;-71
2020/12/14 15:58:23;;;;;;;8.30;5.07;;;7.50;97.30;;;;;;4915428;29;20177;-72
2020/12/14 16:00:51;;;;;;;12.13;5.20;;;7.50;97.30;;;;;;4914816;29;20456;-72
2020/12/14 16:03:17;;;;;;;9.80;5.60;;;7.50;97.30;;;;;;4915273;29;20263;-71
2020/12/14 16:05:46;;;;;;;9.63;5.37;;;7.50;97.30;;;;;;4914509;29;20907;-71
2020/12/14 16:08:13;;;;;;;7.50;5.50;;;7.50;97.30;;;;;;4914617;29;20487;-71
2020/12/14 16:10:40;;;;;;;9.30;5.93;;;7.40;97.30;;;;;;4914762;29;20507;-71
2020/12/14 16:13:06;;;;;;;11.10;5.60;;;7.40;97.30;;;;;;4916176;29;20500;-71
2020/12/14 16:15:34;;;;;;;7.70;4.80;;;7.50;97.30;;;;;;4914866;29;20432;-71
2020/12/14 16:18:00;;;;;;;12.13;5.93;;;7.40;97.30;;;;;;4914652;29;20435;-72
2020/12/14 16:20:26;;;;;;;8.63;5.30;;;7.50;97.30;;;;;;4914861;29;20432;-72
2020/12/14 16:22:52;;;;;;;6.00;4.57;;;7.40;97.30;;;;;;4919315;29;20495;-71
2020/12/14 16:25:18;;;;;;;7.70;5.10;;;7.40;97.30;;;;;;4917812;29;20531;-71
2020/12/14 16:27:49;;;;;;;10.57;5.13;;;7.40;97.30;;;;;;4919429;29;20424;-71
2020/12/14 16:30:15;;;;;;;8.27;5.27;;;7.30;97.30;;;;;;4917866;29;20503;-72
2020/12/14 16:32:41;;;;;;;9.10;5.63;;;7.30;97.30;;;;;;4918228;29;20516;-71
2020/12/14 16:35:09;;;;;;;9.53;5.60;;;7.30;97.30;;;;;;4917639;29;20192;-71
2020/12/14 16:37:36;;;;;;;9.87;6.20;;;7.20;97.30;;;;;;4902714;29;20433;-71
2020/12/14 16:40:05;;;;;;;8.23;5.83;;;7.20;97.30;;;;;;4917974;29;20428;-71
2020/12/14 16:42:33;;;;;;;13.27;6.00;;;7.20;97.30;;;;;;4919206;29;20448;-71
2020/12/14 16:44:59;;;;;;;11.53;6.50;;;7.20;97.30;;;;;;4917738;29;20435;-71
2020/12/14 16:47:26;;;;;;;10.00;5.80;;;7.20;97.30;;;;;;4919195;29;20432;-71
2020/12/14 16:49:52;;;;;;;11.87;6.37;;;7.10;97.30;;;;;;4917580;29;21013;-72
2020/12/14 16:52:20;;;;;;;10.17;5.90;;;7.10;97.30;;;;;;4917576;29;20460;-72
2020/12/14 16:54:46;;;;;;;10.87;6.50;;;7.10;97.30;;;;;;4917521;29;20599;-72
2020/12/14 16:57:12;;;;;;;12.13;6.80;;;7.10;97.30;;;;;;4917733;29;20421;-71
2020/12/14 16:59:39;;;;;;;9.60;6.30;;;7.10;97.30;;;;;;4917623;29;20452;-71
2020/12/14 17:02:11;;;;;;;12.80;6.67;;;7.10;97.30;;;;;;4918837;29;20208;-72
2020/12/14 17:07:12;;;;;;;11.00;6.13;;;7.00;97.30;;;;;;4918986;29;20409;-71
2020/12/14 17:09:38;;;;;;;10.63;6.87;;;7.00;97.30;;;;;;4917784;29;20551;-71
2020/12/14 17:12:08;;;;;;;11.70;6.73;;;7.00;97.30;;;;;;4918126;29;20461;-72
2020/12/14 17:14:35;;;;;;;9.10;5.87;;;7.00;97.30;;;;;;4902168;29;20429;-72
2020/12/14 17:17:03;;;;;;;11.20;7.43;;;7.00;97.30;;;;;;4901909;29;20507;-71
2020/12/14 17:19:29;;;;;;;14.23;7.20;;;6.90;97.30;;;;;;4917135;29;20439;-71
2020/12/14 17:21:55;;;;;;;10.80;7.10;;;6.90;97.30;;;;;;4918458;29;20527;-73
2020/12/14 17:24:22;;;;;;;12.13;7.03;;;6.90;97.30;;;;;;4917031;29;20425;-72
2020/12/14 17:26:47;;;;;;;11.87;7.00;;;6.90;97.30;;;;;;4918471;29;20416;-73
2020/12/14 17:29:13;;;;;;;16.50;8.20;;;6.90;97.30;;;;;;4917988;29;20474;-73
2020/12/14 17:31:40;;;;;;;16.03;7.20;;;6.80;97.30;;;;;;4917936;29;20197;-71
2020/12/14 17:34:10;;;;;;;14.93;7.40;;;6.80;97.30;;;;;;4918105;29;20188;-73
2020/12/14 17:36:36;;;;;;;17.07;7.77;;;6.70;97.30;;;;;;4916963;29;20428;-72
2020/12/14 17:39:04;;;;;;;13.73;7.17;;;6.70;97.30;;;;;;4916932;29;20435;-73
2020/12/14 17:41:31;;;;;;;15.57;8.10;;;6.60;97.30;;;;;;4916600;29;20219;-72
2020/12/14 17:43:57;;;;;;;12.80;8.17;;;6.60;97.30;;;;;;4917788;29;20416;-72
2020/12/14 17:46:23;;;;;;;13.53;8.10;;;6.60;97.30;;;;;;4917202;29;20435;-72
2020/12/14 17:48:49;;;;;;;15.53;8.40;;;6.60;97.30;;;;;;4917427;29;20428;-73
2020/12/14 17:51:16;;;;;;;15.20;8.17;;;6.50;97.30;;;;;;4917756;29;20655;-71
2020/12/14 17:53:42;;;;;;;16.70;8.17;;;6.50;97.30;;;;;;4916375;29;20464;-71
2020/12/14 17:56:08;;;;;;;16.63;8.00;;;6.50;97.30;;;;;;4916342;29;20439;-71
2020/12/14 17:58:34;;;;;;;16.10;8.10;;;6.50;97.30;;;;;;4917370;29;20451;-71
2020/12/14 18:01:01;;;;;;;11.70;6.60;;;6.50;97.30;;;;;;4916631;29;20472;-71
2020/12/14 18:03:29;;;;;;;20.50;7.90;;;6.50;97.30;;;;;;4917029;29;20631;-72
2020/12/14 18:05:56;;;;;;;14.57;8.13;;;6.40;97.30;;;;;;4916234;29;20437;-71
2020/12/14 18:08:22;;;;;;;13.20;7.43;;;6.40;97.30;;;;;;4917389;29;20428;-71
2020/12/14 18:10:49;;;;;;;16.40;8.00;;;6.40;97.30;;;;;;4915816;29;20482;-71
2020/12/14 18:13:15;;;;;;;13.80;7.20;;;6.40;97.30;;;;;;4917230;29;20427;-71
2020/12/14 18:15:42;;;;;;;16.03;8.57;;;6.40;97.30;;;;;;4917609;29;20500;-71
2020/12/14 18:18:07;;;;;;;13.17;7.43;;;6.40;97.30;;;;;;4916968;29;20192;-71
2020/12/14 18:20:37;;;;;;;13.87;7.57;;;6.40;97.30;;;;;;4917534;29;20412;-71
2020/12/14 18:23:04;;;;;;;15.07;8.03;;;6.30;97.30;;;;;;4915875;29;20180;-72
2020/12/14 18:25:30;;;;;;;16.47;7.87;;;6.40;97.30;;;;;;4917007;29;20451;-71
2020/12/14 18:27:56;;;;;;;14.83;8.10;;;6.40;97.30;;;;;;4917473;29;20460;-70
2020/12/14 18:30:23;;;;;;;15.57;8.10;;;6.40;97.30;;;;;;4915788;29;20256;-71
2020/12/14 21:24:39;;;;;;;13.77;7.33;;;5.20;97.30;;;;;;4918218;29;20430;-71
2020/12/14 21:27:05;;;;;;;16.10;8.00;;;5.20;97.30;;;;;;4918386;29;20420;-70
2020/12/14 21:29:33;;;;;;;15.93;7.73;;;5.20;97.30;;;;;;4918374;29;21021;-70
2020/12/14 21:31:58;;;;;;;14.23;7.20;;;5.20;97.30;;;;;;4916532;29;20208;-71
2020/12/14 21:34:25;;;;;;;14.30;7.60;;;5.20;97.30;;;;;;4916800;29;20424;-70
2020/12/14 21:36:53;;;;;;;14.27;7.63;;;5.20;97.30;;;;;;4917153;29;20468;-71
2020/12/14 21:39:19;;;;;;;15.70;7.53;;;5.20;97.30;;;;;;4917971;29;20516;-71
2020/12/14 21:41:44;;;;;;;18.13;8.33;;;5.20;97.30;;;;;;4916668;29;20531;-71
2020/12/14 21:44:10;;;;;;;11.60;6.60;;;5.20;97.30;;;;;;4916673;29;20176;-71
2020/12/14 21:46:37;;;;;;;12.33;6.70;;;5.10;97.30;;;;;;4917904;29;20220;-71
2020/12/14 21:49:03;;;;;;;18.37;7.93;;;5.10;97.30;;;;;;4917565;29;20209;-71